sensor_id;sensor_type;location;lat;lon;timestamp;temperature;humidity
10386;DHT22;34307;51.332;12.334;2022-07-18T00:01:31;16.00;63.10
10386;DHT22;34307;51.332;12.334;2022-07-18T00:04:01;15.90;65.90
10386;DHT22;34307;51.332;12.334;2022-07-18T00:06:29;15.90;65.50
10386;DHT22;34307;51.332;12.334;2022-07-18T00:09:02;15.90;61.00
10386;DHT22;34307;51.332;12.334;2022-07-18T00:11:37;15.90;58.00
10386;DHT22;34307;51.332;12.334;2022-07-18T00:14:08;15.90;55.60
10386;DHT22;34307;51.332;12.334;2022-07-18T00:16:41;15.90;54.80
10386;DHT22;34307;51.332;12.334;2022-07-18T00:19:11;15.90;54.20
10386;DHT22;34307;51.332;12.334;2022-07-18T00:21:39;16.00;52.00
10386;DHT22;34307;51.332;12.334;2022-07-18T00:24:08;16.00;51.20
10386;DHT22;34307;51.332;12.334;2022-07-18T00:26:43;15.90;51.60
10386;DHT22;34307;51.332;12.334;2022-07-18T00:29:11;15.80;52.60
10386;DHT22;34307;51.332;12.334;2022-07-18T00:31:40;15.70;52.90
10386;DHT22;34307;51.332;12.334;2022-07-18T00:34:11;15.60;53.30
10386;DHT22;34307;51.332;12.334;2022-07-18T00:36:43;15.50;53.90
10386;DHT22;34307;51.332;12.334;2022-07-18T00:39:13;15.40;54.50
10386;DHT22;34307;51.332;12.334;2022-07-18T00:41:45;15.40;55.40
10386;DHT22;34307;51.332;12.334;2022-07-18T00:44:18;15.30;57.20
10386;DHT22;34307;51.332;12.334;2022-07-18T00:46:48;15.20;58.00
10386;DHT22;34307;51.332;12.334;2022-07-18T00:49:19;15.20;58.60
10386;DHT22;34307;51.332;12.334;2022-07-18T00:51:49;15.20;58.60
10386;DHT22;34307;51.332;12.334;2022-07-18T00:54:18;15.30;60.00
10386;DHT22;34307;51.332;12.334;2022-07-18T00:56:48;15.20;59.80
10386;DHT22;34307;51.332;12.334;2022-07-18T00:59:18;15.20;60.90
10386;DHT22;34307;51.332;12.334;2022-07-18T01:01:46;15.30;61.70
10386;DHT22;34307;51.332;12.334;2022-07-18T01:04:16;15.20;61.50
10386;DHT22;34307;51.332;12.334;2022-07-18T01:06:48;15.20;62.10
10386;DHT22;34307;51.332;12.334;2022-07-18T01:09:17;15.00;62.60
10386;DHT22;34307;51.332;12.334;2022-07-18T01:11:52;15.00;65.10
10386;DHT22;34307;51.332;12.334;2022-07-18T01:14:21;14.90;64.80
10386;DHT22;34307;51.332;12.334;2022-07-18T01:16:49;14.80;66.40
10386;DHT22;34307;51.332;12.334;2022-07-18T01:19:18;14.80;65.70
10386;DHT22;34307;51.332;12.334;2022-07-18T01:21:47;14.80;64.40
10386;DHT22;34307;51.332;12.334;2022-07-18T01:24:17;14.80;63.90
10386;DHT22;34307;51.332;12.334;2022-07-18T01:26:47;14.70;64.80
10386;DHT22;34307;51.332;12.334;2022-07-18T01:29:24;14.70;65.50
10386;DHT22;34307;51.332;12.334;2022-07-18T01:31:53;14.60;66.80
10386;DHT22;34307;51.332;12.334;2022-07-18T01:34:26;14.60;66.60
10386;DHT22;34307;51.332;12.334;2022-07-18T01:36:56;14.60;67.10
10386;DHT22;34307;51.332;12.334;2022-07-18T01:39:25;14.50;68.40
10386;DHT22;34307;51.332;12.334;2022-07-18T01:41:57;14.60;67.80
10386;DHT22;34307;51.332;12.334;2022-07-18T01:44:28;14.60;67.20
10386;DHT22;34307;51.332;12.334;2022-07-18T01:46:57;14.60;68.50
10386;DHT22;34307;51.332;12.334;2022-07-18T01:49:26;14.70;68.90
10386;DHT22;34307;51.332;12.334;2022-07-18T01:52:04;14.60;69.30
10386;DHT22;34307;51.332;12.334;2022-07-18T01:54:40;14.70;69.30
10386;DHT22;34307;51.332;12.334;2022-07-18T01:57:08;14.70;70.50
10386;DHT22;34307;51.332;12.334;2022-07-18T01:59:40;14.80;70.10
10386;DHT22;34307;51.332;12.334;2022-07-18T02:02:09;14.70;70.30
10386;DHT22;34307;51.332;12.334;2022-07-18T02:04:45;14.70;71.20
10386;DHT22;34307;51.332;12.334;2022-07-18T02:07:33;14.60;73.90
10386;DHT22;34307;51.332;12.334;2022-07-18T02:10:04;14.60;73.70
10386;DHT22;34307;51.332;12.334;2022-07-18T02:12:34;14.50;75.00
10386;DHT22;34307;51.332;12.334;2022-07-18T02:15:03;14.40;76.90
10386;DHT22;34307;51.332;12.334;2022-07-18T02:17:32;14.40;77.50
10386;DHT22;34307;51.332;12.334;2022-07-18T02:20:01;14.30;78.50
10386;DHT22;34307;51.332;12.334;2022-07-18T02:22:31;14.20;79.40
10386;DHT22;34307;51.332;12.334;2022-07-18T02:24:59;14.20;83.10
10386;DHT22;34307;51.332;12.334;2022-07-18T02:27:27;14.20;88.80
10386;DHT22;34307;51.332;12.334;2022-07-18T02:29:56;14.30;90.90
10386;DHT22;34307;51.332;12.334;2022-07-18T02:32:24;14.30;92.30
10386;DHT22;34307;51.332;12.334;2022-07-18T02:34:56;14.20;95.90
10386;DHT22;34307;51.332;12.334;2022-07-18T02:37:38;14.10;98.80
10386;DHT22;34307;51.332;12.334;2022-07-18T02:40:10;14.10;99.90
10386;DHT22;34307;51.332;12.334;2022-07-18T02:42:42;14.10;99.90
10386;DHT22;34307;51.332;12.334;2022-07-18T02:45:15;14.00;99.90
10386;DHT22;34307;51.332;12.334;2022-07-18T02:47:51;13.90;99.90
10386;DHT22;34307;51.332;12.334;2022-07-18T02:50:26;13.80;99.90
10386;DHT22;34307;51.332;12.334;2022-07-18T02:53:04;13.80;99.90
10386;DHT22;34307;51.332;12.334;2022-07-18T02:55:34;13.90;99.90
10386;DHT22;34307;51.332;12.334;2022-07-18T02:58:13;13.90;99.90
10386;DHT22;34307;51.332;12.334;2022-07-18T03:00:45;13.80;99.90
10386;DHT22;34307;51.332;12.334;2022-07-18T03:03:23;13.70;99.90
10386;DHT22;34307;51.332;12.334;2022-07-18T03:06:00;13.60;99.90
10386;DHT22;34307;51.332;12.334;2022-07-18T03:08:31;13.70;99.90
10386;DHT22;34307;51.332;12.334;2022-07-18T03:11:03;13.70;99.90
10386;DHT22;34307;51.332;12.334;2022-07-18T03:13:37;13.60;99.90
10386;DHT22;34307;51.332;12.334;2022-07-18T03:16:08;13.50;99.90
10386;DHT22;34307;51.332;12.334;2022-07-18T03:18:39;13.50;99.90
10386;DHT22;34307;51.332;12.334;2022-07-18T03:21:14;13.50;99.90
10386;DHT22;34307;51.332;12.334;2022-07-18T03:23:54;13.40;99.90
10386;DHT22;34307;51.332;12.334;2022-07-18T03:26:45;13.50;99.90
10386;DHT22;34307;51.332;12.334;2022-07-18T03:29:19;13.50;99.90
10386;DHT22;34307;51.332;12.334;2022-07-18T03:32:05;13.50;99.90
10386;DHT22;34307;51.332;12.334;2022-07-18T03:34:41;13.50;99.90
10386;DHT22;34307;51.332;12.334;2022-07-18T03:37:09;13.60;99.90
10386;DHT22;34307;51.332;12.334;2022-07-18T03:39:38;13.60;99.90
10386;DHT22;34307;51.332;12.334;2022-07-18T03:42:10;13.60;99.90
10386;DHT22;34307;51.332;12.334;2022-07-18T03:44:38;13.60;99.90
10386;DHT22;34307;51.332;12.334;2022-07-18T03:47:07;13.60;99.90
10386;DHT22;34307;51.332;12.334;2022-07-18T03:49:35;13.60;99.90
10386;DHT22;34307;51.332;12.334;2022-07-18T03:52:05;13.70;99.90
10386;DHT22;34307;51.332;12.334;2022-07-18T03:54:43;13.70;99.90
10386;DHT22;34307;51.332;12.334;2022-07-18T03:57:37;13.70;99.90
10386;DHT22;34307;51.332;12.334;2022-07-18T04:00:11;13.80;99.90
10386;DHT22;34307;51.332;12.334;2022-07-18T04:02:44;13.80;99.90
10386;DHT22;34307;51.332;12.334;2022-07-18T04:05:22;13.80;99.90
10386;DHT22;34307;51.332;12.334;2022-07-18T04:07:54;13.90;99.90
10386;DHT22;34307;51.332;12.334;2022-07-18T04:10:27;13.90;99.90
10386;DHT22;34307;51.332;12.334;2022-07-18T04:12:57;13.90;99.90
10386;DHT22;34307;51.332;12.334;2022-07-18T04:15:31;13.90;99.90
10386;DHT22;34307;51.332;12.334;2022-07-18T04:18:03;14.00;99.90
10386;DHT22;34307;51.332;12.334;2022-07-18T04:20:36;14.00;99.90
10386;DHT22;34307;51.332;12.334;2022-07-18T04:23:11;14.00;99.90
10386;DHT22;34307;51.332;12.334;2022-07-18T04:25:45;14.20;99.70
10386;DHT22;34307;51.332;12.334;2022-07-18T04:28:26;14.20;99.90
10386;DHT22;34307;51.332;12.334;2022-07-18T04:30:59;14.20;99.60
10386;DHT22;34307;51.332;12.334;2022-07-18T04:33:38;14.20;98.90
10386;DHT22;34307;51.332;12.334;2022-07-18T04:36:12;14.30;99.70
10386;DHT22;34307;51.332;12.334;2022-07-18T04:38:59;14.40;99.00
10386;DHT22;34307;51.332;12.334;2022-07-18T04:41:33;14.50;97.00
10386;DHT22;34307;51.332;12.334;2022-07-18T04:44:17;14.50;97.70
10386;DHT22;34307;51.332;12.334;2022-07-18T04:46:55;14.50;96.90
10386;DHT22;34307;51.332;12.334;2022-07-18T04:49:27;14.70;99.80
10386;DHT22;34307;51.332;12.334;2022-07-18T04:51:58;14.90;97.20
10386;DHT22;34307;51.332;12.334;2022-07-18T04:54:30;14.90;96.00
10386;DHT22;34307;51.332;12.334;2022-07-18T04:57:05;14.90;96.10
10386;DHT22;34307;51.332;12.334;2022-07-18T04:59:36;14.90;94.20
10386;DHT22;34307;51.332;12.334;2022-07-18T05:02:09;14.80;94.90
10386;DHT22;34307;51.332;12.334;2022-07-18T05:04:41;14.80;95.40
10386;DHT22;34307;51.332;12.334;2022-07-18T05:07:09;14.90;95.00
10386;DHT22;34307;51.332;12.334;2022-07-18T05:09:40;14.90;94.60
10386;DHT22;34307;51.332;12.334;2022-07-18T05:12:10;15.00;94.60
10386;DHT22;34307;51.332;12.334;2022-07-18T05:14:38;15.00;95.20
10386;DHT22;34307;51.332;12.334;2022-07-18T05:17:18;15.00;95.90
10386;DHT22;34307;51.332;12.334;2022-07-18T05:19:49;15.10;97.20
10386;DHT22;34307;51.332;12.334;2022-07-18T05:22:18;15.20;96.90
10386;DHT22;34307;51.332;12.334;2022-07-18T05:25:11;15.20;97.60
10386;DHT22;34307;51.332;12.334;2022-07-18T05:27:42;15.30;98.20
10386;DHT22;34307;51.332;12.334;2022-07-18T05:30:12;15.40;98.70
10386;DHT22;34307;51.332;12.334;2022-07-18T05:32:42;15.40;99.90
10386;DHT22;34307;51.332;12.334;2022-07-18T05:35:11;15.50;99.90
10386;DHT22;34307;51.332;12.334;2022-07-18T05:37:41;15.60;99.90
10386;DHT22;34307;51.332;12.334;2022-07-18T05:40:12;15.70;99.90
10386;DHT22;34307;51.332;12.334;2022-07-18T05:42:42;15.70;99.90
10386;DHT22;34307;51.332;12.334;2022-07-18T05:45:21;15.80;99.90
10386;DHT22;34307;51.332;12.334;2022-07-18T05:47:50;15.90;99.90
10386;DHT22;34307;51.332;12.334;2022-07-18T05:50:19;16.00;99.90
10386;DHT22;34307;51.332;12.334;2022-07-18T05:52:48;16.10;99.90
10386;DHT22;34307;51.332;12.334;2022-07-18T05:55:16;16.10;99.90
10386;DHT22;34307;51.332;12.334;2022-07-18T05:57:46;16.10;99.90
10386;DHT22;34307;51.332;12.334;2022-07-18T06:00:17;16.30;99.90
10386;DHT22;34307;51.332;12.334;2022-07-18T06:02:47;16.40;99.90
10386;DHT22;34307;51.332;12.334;2022-07-18T06:05:16;16.50;99.90
10386;DHT22;34307;51.332;12.334;2022-07-18T06:07:50;16.70;99.00
10386;DHT22;34307;51.332;12.334;2022-07-18T06:10:19;16.80;95.30
10386;DHT22;34307;51.332;12.334;2022-07-18T06:12:49;16.90;93.70
10386;DHT22;34307;51.332;12.334;2022-07-18T06:15:21;17.00;92.70
10386;DHT22;34307;51.332;12.334;2022-07-18T06:17:50;17.10;92.20
10386;DHT22;34307;51.332;12.334;2022-07-18T06:20:19;17.20;89.80
10386;DHT22;34307;51.332;12.334;2022-07-18T06:22:47;17.20;87.50
10386;DHT22;34307;51.332;12.334;2022-07-18T06:25:16;17.30;89.80
10386;DHT22;34307;51.332;12.334;2022-07-18T06:27:44;17.40;90.80
10386;DHT22;34307;51.332;12.334;2022-07-18T06:30:14;17.40;89.30
10386;DHT22;34307;51.332;12.334;2022-07-18T06:32:42;17.60;86.40
10386;DHT22;34307;51.332;12.334;2022-07-18T06:35:13;17.60;86.20
10386;DHT22;34307;51.332;12.334;2022-07-18T06:37:44;17.70;84.40
10386;DHT22;34307;51.332;12.334;2022-07-18T06:40:17;17.80;83.20
10386;DHT22;34307;51.332;12.334;2022-07-18T06:42:48;17.90;80.60
10386;DHT22;34307;51.332;12.334;2022-07-18T06:45:18;18.10;79.50
10386;DHT22;34307;51.332;12.334;2022-07-18T06:47:47;18.30;78.30
10386;DHT22;34307;51.332;12.334;2022-07-18T06:50:16;18.30;76.80
10386;DHT22;34307;51.332;12.334;2022-07-18T06:52:45;18.60;73.90
10386;DHT22;34307;51.332;12.334;2022-07-18T06:55:16;18.90;72.50
10386;DHT22;34307;51.332;12.334;2022-07-18T06:57:48;18.90;71.10
10386;DHT22;34307;51.332;12.334;2022-07-18T07:00:18;19.00;71.50
10386;DHT22;34307;51.332;12.334;2022-07-18T07:02:49;19.10;70.60
10386;DHT22;34307;51.332;12.334;2022-07-18T07:05:20;19.30;70.00
10386;DHT22;34307;51.332;12.334;2022-07-18T07:07:51;19.30;68.10
10386;DHT22;34307;51.332;12.334;2022-07-18T07:10:19;19.40;67.10
10386;DHT22;34307;51.332;12.334;2022-07-18T07:12:53;19.50;66.10
10386;DHT22;34307;51.332;12.334;2022-07-18T07:15:23;19.70;64.30
10386;DHT22;34307;51.332;12.334;2022-07-18T07:17:52;19.90;62.60
10386;DHT22;34307;51.332;12.334;2022-07-18T07:20:22;19.90;61.70
10386;DHT22;34307;51.332;12.334;2022-07-18T07:22:52;20.10;58.60
10386;DHT22;34307;51.332;12.334;2022-07-18T07:25:22;20.10;57.50
10386;DHT22;34307;51.332;12.334;2022-07-18T07:27:51;20.40;56.60
10386;DHT22;34307;51.332;12.334;2022-07-18T07:30:22;20.50;54.90
10386;DHT22;34307;51.332;12.334;2022-07-18T07:32:51;20.50;52.90
10386;DHT22;34307;51.332;12.334;2022-07-18T07:35:20;20.50;49.20
10386;DHT22;34307;51.332;12.334;2022-07-18T07:37:50;20.60;48.50
10386;DHT22;34307;51.332;12.334;2022-07-18T07:40:20;20.70;45.30
10386;DHT22;34307;51.332;12.334;2022-07-18T07:42:49;20.80;41.70
10386;DHT22;34307;51.332;12.334;2022-07-18T07:45:18;21.00;40.00
10386;DHT22;34307;51.332;12.334;2022-07-18T07:47:54;21.10;39.10
10386;DHT22;34307;51.332;12.334;2022-07-18T07:50:23;21.20;36.60
10386;DHT22;34307;51.332;12.334;2022-07-18T07:52:51;21.40;28.40
10386;DHT22;34307;51.332;12.334;2022-07-18T07:55:24;21.40;28.50
10386;DHT22;34307;51.332;12.334;2022-07-18T07:57:53;21.60;24.90
10386;DHT22;34307;51.332;12.334;2022-07-18T08:00:21;21.80;22.30
10386;DHT22;34307;51.332;12.334;2022-07-18T08:02:53;21.90;18.00
10386;DHT22;34307;51.332;12.334;2022-07-18T08:05:26;22.10;17.30
10386;DHT22;34307;51.332;12.334;2022-07-18T08:07:55;22.00;14.70
10386;DHT22;34307;51.332;12.334;2022-07-18T08:10:24;22.20;13.00
10386;DHT22;34307;51.332;12.334;2022-07-18T08:12:52;22.60;12.00
10386;DHT22;34307;51.332;12.334;2022-07-18T08:15:20;23.20;7.80
10386;DHT22;34307;51.332;12.334;2022-07-18T08:17:48;23.80;1.50
10386;DHT22;34307;51.332;12.334;2022-07-18T08:20:18;24.20;1.00
10386;DHT22;34307;51.332;12.334;2022-07-18T08:22:57;24.80;1.00
10386;DHT22;34307;51.332;12.334;2022-07-18T08:25:26;25.10;1.00
10386;DHT22;34307;51.332;12.334;2022-07-18T08:27:56;25.40;1.00
10386;DHT22;34307;51.332;12.334;2022-07-18T08:30:24;25.60;1.00
10386;DHT22;34307;51.332;12.334;2022-07-18T08:32:52;25.90;1.00
10386;DHT22;34307;51.332;12.334;2022-07-18T08:35:27;26.00;1.00
10386;DHT22;34307;51.332;12.334;2022-07-18T08:37:59;26.10;1.00
10386;DHT22;34307;51.332;12.334;2022-07-18T08:40:29;26.20;1.00
10386;DHT22;34307;51.332;12.334;2022-07-18T08:42:58;26.50;1.00
10386;DHT22;34307;51.332;12.334;2022-07-18T08:45:49;26.70;1.00
10386;DHT22;34307;51.332;12.334;2022-07-18T08:48:19;26.50;1.00
10386;DHT22;34307;51.332;12.334;2022-07-18T08:50:49;26.50;1.00
10386;DHT22;34307;51.332;12.334;2022-07-18T08:53:18;26.40;1.00
10386;DHT22;34307;51.332;12.334;2022-07-18T08:55:47;26.40;1.00
10386;DHT22;34307;51.332;12.334;2022-07-18T08:58:16;26.50;1.00
10386;DHT22;34307;51.332;12.334;2022-07-18T09:01:05;26.30;1.00
10386;DHT22;34307;51.332;12.334;2022-07-18T09:03:33;26.60;1.00
10386;DHT22;34307;51.332;12.334;2022-07-18T09:06:08;26.20;1.00
10386;DHT22;34307;51.332;12.334;2022-07-18T09:08:40;26.40;1.00
10386;DHT22;34307;51.332;12.334;2022-07-18T09:11:24;26.70;1.00
10386;DHT22;34307;51.332;12.334;2022-07-18T09:14:33;26.70;1.00
10386;DHT22;34307;51.332;12.334;2022-07-18T09:17:10;27.10;1.00
10386;DHT22;34307;51.332;12.334;2022-07-18T09:19:40;27.10;1.00
10386;DHT22;34307;51.332;12.334;2022-07-18T09:22:22;27.40;1.00
10386;DHT22;34307;51.332;12.334;2022-07-18T09:24:57;26.90;1.00
10386;DHT22;34307;51.332;12.334;2022-07-18T09:27:29;26.80;1.00
10386;DHT22;34307;51.332;12.334;2022-07-18T09:30:21;27.00;1.00
10386;DHT22;34307;51.332;12.334;2022-07-18T09:32:51;27.40;1.00
10386;DHT22;34307;51.332;12.334;2022-07-18T09:35:24;27.70;1.00
10386;DHT22;34307;51.332;12.334;2022-07-18T09:38:05;28.20;1.00
10386;DHT22;34307;51.332;12.334;2022-07-18T09:40:38;28.40;1.00
10386;DHT22;34307;51.332;12.334;2022-07-18T09:43:11;28.20;1.00
10386;DHT22;34307;51.332;12.334;2022-07-18T09:45:42;28.10;1.00
10386;DHT22;34307;51.332;12.334;2022-07-18T09:48:26;28.10;1.00
10386;DHT22;34307;51.332;12.334;2022-07-18T09:50:59;28.30;1.00
10386;DHT22;34307;51.332;12.334;2022-07-18T09:53:31;28.60;1.00
10386;DHT22;34307;51.332;12.334;2022-07-18T09:56:03;28.90;1.00
10386;DHT22;34307;51.332;12.334;2022-07-18T09:58:34;29.00;1.00
10386;DHT22;34307;51.332;12.334;2022-07-18T10:01:07;29.20;1.00
10386;DHT22;34307;51.332;12.334;2022-07-18T10:03:36;29.20;1.00
10386;DHT22;34307;51.332;12.334;2022-07-18T10:06:06;28.80;1.00
10386;DHT22;34307;51.332;12.334;2022-07-18T10:08:36;28.30;1.00
10386;DHT22;34307;51.332;12.334;2022-07-18T10:11:08;28.20;1.00
10386;DHT22;34307;51.332;12.334;2022-07-18T10:14:08;28.50;1.00
10386;DHT22;34307;51.332;12.334;2022-07-18T10:16:44;28.60;1.00
10386;DHT22;34307;51.332;12.334;2022-07-18T10:19:26;28.50;1.00
10386;DHT22;34307;51.332;12.334;2022-07-18T10:22:07;28.80;1.00
10386;DHT22;34307;51.332;12.334;2022-07-18T10:24:43;28.80;1.00
10386;DHT22;34307;51.332;12.334;2022-07-18T10:27:48;28.60;1.00
10386;DHT22;34307;51.332;12.334;2022-07-18T10:30:41;28.60;1.00
10386;DHT22;34307;51.332;12.334;2022-07-18T10:33:41;28.70;1.00
10386;DHT22;34307;51.332;12.334;2022-07-18T10:36:22;28.90;1.00
10386;DHT22;34307;51.332;12.334;2022-07-18T10:39:05;29.00;1.00
10386;DHT22;34307;51.332;12.334;2022-07-18T10:46:15;29.50;1.00
10386;DHT22;34307;51.332;12.334;2022-07-18T10:48:55;29.50;1.00
10386;DHT22;34307;51.332;12.334;2022-07-18T10:56:00;29.50;1.00
10386;DHT22;34307;51.332;12.334;2022-07-18T10:59:02;29.70;1.00
10386;DHT22;34307;51.332;12.334;2022-07-18T11:06:29;30.20;1.00
10386;DHT22;34307;51.332;12.334;2022-07-18T11:09:51;29.60;1.00
10386;DHT22;34307;51.332;12.334;2022-07-18T11:20:34;30.90;1.00
10386;DHT22;34307;51.332;12.334;2022-07-18T11:23:21;31.00;1.00
10386;DHT22;34307;51.332;12.334;2022-07-18T11:25:54;30.80;1.00
10386;DHT22;34307;51.332;12.334;2022-07-18T11:28:28;31.20;1.00
10386;DHT22;34307;51.332;12.334;2022-07-18T11:31:02;31.60;1.00
10386;DHT22;34307;51.332;12.334;2022-07-18T11:33:34;31.30;1.00
10386;DHT22;34307;51.332;12.334;2022-07-18T11:36:05;31.40;1.00
10386;DHT22;34307;51.332;12.334;2022-07-18T11:38:36;31.00;1.00
10386;DHT22;34307;51.332;12.334;2022-07-18T11:41:06;31.10;1.00
10386;DHT22;34307;51.332;12.334;2022-07-18T11:43:34;30.80;1.00
10386;DHT22;34307;51.332;12.334;2022-07-18T11:46:05;31.00;1.00
10386;DHT22;34307;51.332;12.334;2022-07-18T11:48:42;31.50;1.00
10386;DHT22;34307;51.332;12.334;2022-07-18T11:51:15;31.90;1.00
10386;DHT22;34307;51.332;12.334;2022-07-18T11:53:43;32.00;1.00
10386;DHT22;34307;51.332;12.334;2022-07-18T11:56:14;32.40;1.00
10386;DHT22;34307;51.332;12.334;2022-07-18T11:58:48;32.40;1.00
10386;DHT22;34307;51.332;12.334;2022-07-18T12:01:42;32.30;1.00
10386;DHT22;34307;51.332;12.334;2022-07-18T12:04:38;32.50;1.00
10386;DHT22;34307;51.332;12.334;2022-07-18T12:07:29;32.60;1.00
10386;DHT22;34307;51.332;12.334;2022-07-18T12:10:22;32.90;1.00
10386;DHT22;34307;51.332;12.334;2022-07-18T12:13:32;32.60;1.00
10386;DHT22;34307;51.332;12.334;2022-07-18T12:16:36;32.20;1.00
10386;DHT22;34307;51.332;12.334;2022-07-18T12:19:36;31.30;1.00
10386;DHT22;34307;51.332;12.334;2022-07-18T12:22:11;30.90;1.00
10386;DHT22;34307;51.332;12.334;2022-07-18T12:25:07;31.30;1.00
10386;DHT22;34307;51.332;12.334;2022-07-18T12:27:54;32.10;1.00
10386;DHT22;34307;51.332;12.334;2022-07-18T12:30:41;32.70;1.00
10386;DHT22;34307;51.332;12.334;2022-07-18T12:33:35;33.20;1.00
10386;DHT22;34307;51.332;12.334;2022-07-18T12:39:42;33.50;1.00
10386;DHT22;34307;51.332;12.334;2022-07-18T12:50:12;33.40;1.00
10386;DHT22;34307;51.332;12.334;2022-07-18T12:53:33;33.60;1.00
10386;DHT22;34307;51.332;12.334;2022-07-18T12:56:57;33.90;1.00
10386;DHT22;34307;51.332;12.334;2022-07-18T12:59:48;34.60;1.00
10386;DHT22;34307;51.332;12.334;2022-07-18T13:02:38;35.10;1.00
10386;DHT22;34307;51.332;12.334;2022-07-18T13:05:26;35.40;1.00
10386;DHT22;34307;51.332;12.334;2022-07-18T13:08:09;35.40;1.00
10386;DHT22;34307;51.332;12.334;2022-07-18T13:13:55;34.90;1.00
10386;DHT22;34307;51.332;12.334;2022-07-18T13:16:40;35.00;1.00
10386;DHT22;34307;51.332;12.334;2022-07-18T13:19:40;34.80;1.00
10386;DHT22;34307;51.332;12.334;2022-07-18T13:22:26;35.00;1.00
10386;DHT22;34307;51.332;12.334;2022-07-18T13:28:42;36.20;1.00
10386;DHT22;34307;51.332;12.334;2022-07-18T13:31:56;36.20;1.00
10386;DHT22;34307;51.332;12.334;2022-07-18T13:34:51;36.40;1.00
10386;DHT22;34307;51.332;12.334;2022-07-18T13:38:16;36.40;1.00
10386;DHT22;34307;51.332;12.334;2022-07-18T13:46:01;36.10;1.00
10386;DHT22;34307;51.332;12.334;2022-07-18T13:53:03;36.40;1.00
10386;DHT22;34307;51.332;12.334;2022-07-18T13:56:23;36.50;1.00
10386;DHT22;34307;51.332;12.334;2022-07-18T13:59:37;36.40;1.00
10386;DHT22;34307;51.332;12.334;2022-07-18T14:03:16;37.00;1.00
10386;DHT22;34307;51.332;12.334;2022-07-18T14:06:33;37.20;1.00
10386;DHT22;34307;51.332;12.334;2022-07-18T14:17:49;36.80;1.00
10386;DHT22;34307;51.332;12.334;2022-07-18T14:20:50;36.60;1.00
10386;DHT22;34307;51.332;12.334;2022-07-18T14:24:12;36.20;1.00
10386;DHT22;34307;51.332;12.334;2022-07-18T14:26:56;35.40;1.00
10386;DHT22;34307;51.332;12.334;2022-07-18T14:30:12;35.00;1.00
10386;DHT22;34307;51.332;12.334;2022-07-18T14:32:44;35.00;1.00
10386;DHT22;34307;51.332;12.334;2022-07-18T14:35:12;36.10;1.00
10386;DHT22;34307;51.332;12.334;2022-07-18T14:37:43;36.90;1.00
10386;DHT22;34307;51.332;12.334;2022-07-18T14:40:14;37.10;1.00
10386;DHT22;34307;51.332;12.334;2022-07-18T14:43:18;37.60;1.00
10386;DHT22;34307;51.332;12.334;2022-07-18T14:46:12;36.70;1.00
10386;DHT22;34307;51.332;12.334;2022-07-18T14:48:47;35.80;1.00
10386;DHT22;34307;51.332;12.334;2022-07-18T14:51:23;36.10;1.00
10386;DHT22;34307;51.332;12.334;2022-07-18T14:53:51;36.00;1.00
10386;DHT22;34307;51.332;12.334;2022-07-18T14:56:19;36.50;1.00
10386;DHT22;34307;51.332;12.334;2022-07-18T14:59:02;36.70;1.00
10386;DHT22;34307;51.332;12.334;2022-07-18T15:01:37;36.80;1.00
10386;DHT22;34307;51.332;12.334;2022-07-18T15:04:05;37.10;1.00
10386;DHT22;34307;51.332;12.334;2022-07-18T15:10:37;36.60;1.00
10386;DHT22;34307;51.332;12.334;2022-07-18T15:13:20;35.90;1.00
10386;DHT22;34307;51.332;12.334;2022-07-18T15:16:35;35.90;1.00
10386;DHT22;34307;51.332;12.334;2022-07-18T15:19:00;36.30;1.00
10386;DHT22;34307;51.332;12.334;2022-07-18T15:21:31;36.50;1.00
10386;DHT22;34307;51.332;12.334;2022-07-18T15:24:04;36.50;1.00
10386;DHT22;34307;51.332;12.334;2022-07-18T15:26:46;36.70;1.00
10386;DHT22;34307;51.332;12.334;2022-07-18T15:29:20;36.90;1.00
10386;DHT22;34307;51.332;12.334;2022-07-18T15:31:56;36.80;1.00
10386;DHT22;34307;51.332;12.334;2022-07-18T15:34:29;36.70;1.00
10386;DHT22;34307;51.332;12.334;2022-07-18T15:37:02;36.40;1.00
10386;DHT22;34307;51.332;12.334;2022-07-18T15:39:36;35.80;1.00
10386;DHT22;34307;51.332;12.334;2022-07-18T15:42:06;35.70;1.00
10386;DHT22;34307;51.332;12.334;2022-07-18T15:44:40;35.60;1.00
10386;DHT22;34307;51.332;12.334;2022-07-18T15:47:08;35.90;1.00
10386;DHT22;34307;51.332;12.334;2022-07-18T15:49:44;35.70;1.00
10386;DHT22;34307;51.332;12.334;2022-07-18T15:52:23;35.80;1.00
10386;DHT22;34307;51.332;12.334;2022-07-18T15:55:01;36.10;1.00
10386;DHT22;34307;51.332;12.334;2022-07-18T15:57:33;36.50;1.00
10386;DHT22;34307;51.332;12.334;2022-07-18T16:00:25;36.90;1.00
10386;DHT22;34307;51.332;12.334;2022-07-18T16:03:10;37.10;1.00
10386;DHT22;34307;51.332;12.334;2022-07-18T16:05:43;36.90;1.00
10386;DHT22;34307;51.332;12.334;2022-07-18T16:08:41;37.00;1.00
10386;DHT22;34307;51.332;12.334;2022-07-18T16:11:27;37.20;1.00
10386;DHT22;34307;51.332;12.334;2022-07-18T16:14:05;37.10;1.00
10386;DHT22;34307;51.332;12.334;2022-07-18T16:17:02;37.20;1.00
10386;DHT22;34307;51.332;12.334;2022-07-18T16:19:53;37.00;1.00
10386;DHT22;34307;51.332;12.334;2022-07-18T16:22:33;36.80;1.00
10386;DHT22;34307;51.332;12.334;2022-07-18T16:25:03;37.60;1.00
10386;DHT22;34307;51.332;12.334;2022-07-18T16:27:32;37.50;1.00
10386;DHT22;34307;51.332;12.334;2022-07-18T16:30:41;37.40;1.00
10386;DHT22;34307;51.332;12.334;2022-07-18T16:33:33;37.10;1.00
10386;DHT22;34307;51.332;12.334;2022-07-18T16:36:48;36.60;1.00
10386;DHT22;34307;51.332;12.334;2022-07-18T16:39:38;36.30;1.00
10386;DHT22;34307;51.332;12.334;2022-07-18T16:42:21;36.60;1.00
10386;DHT22;34307;51.332;12.334;2022-07-18T16:45:06;36.90;1.00
10386;DHT22;34307;51.332;12.334;2022-07-18T16:47:42;37.00;1.00
10386;DHT22;34307;51.332;12.334;2022-07-18T16:50:19;37.20;1.00
10386;DHT22;34307;51.332;12.334;2022-07-18T16:52:57;36.90;1.00
10386;DHT22;34307;51.332;12.334;2022-07-18T16:55:28;36.00;1.00
10386;DHT22;34307;51.332;12.334;2022-07-18T16:57:57;34.80;1.00
10386;DHT22;34307;51.332;12.334;2022-07-18T17:00:33;34.20;1.00
10386;DHT22;34307;51.332;12.334;2022-07-18T17:03:04;33.90;1.00
10386;DHT22;34307;51.332;12.334;2022-07-18T17:05:35;33.50;1.00
10386;DHT22;34307;51.332;12.334;2022-07-18T17:08:05;32.90;1.00
10386;DHT22;34307;51.332;12.334;2022-07-18T17:10:35;32.50;1.00
10386;DHT22;34307;51.332;12.334;2022-07-18T17:13:05;32.20;1.00
10386;DHT22;34307;51.332;12.334;2022-07-18T17:15:34;32.20;1.00
10386;DHT22;34307;51.332;12.334;2022-07-18T17:18:09;32.00;1.00
10386;DHT22;34307;51.332;12.334;2022-07-18T17:20:49;32.00;1.00
10386;DHT22;34307;51.332;12.334;2022-07-18T17:23:23;31.80;1.00